Skip Navigation LinksHome page > Weather > Current weather Skip Navigation Links

Current Weather

Indira Gandhi Intl Apt, New Delhi, India

For information only: do not use for flight planning or navigation.
Latest weather
Observation time Thursday, January 29, 2015 7:00 PM IST
Local time Thursday, January 29, 2015 7:48 PM IST
Flight conditions Instrument Meteorological Conditions
Winds
Wind direction Northwest (310°)
Wind speed 6 mph
Visibility 2.5 mi.
Present weather haze
Sky condition
Ceiling unlimited
Temperature 57°F
Dewpoint 45°F
Altimeter 30.09 in.Hg
Derived measurements
Relative humidity 63%
Density altitude 597 ft.
Remarks
No significant changes expected in the next two hours.
METAR VIDP 291330Z 31005KT 4000 HZ NSC 14/07 Q1019 NOSIG

Settings

Location code

InnerDrive.Weather 4.0.5505.0 Release CLR 4.0.30319.34014
Copyright ©2015 Inner Drive Technology. All rights reserved. Portions Copyright ©1986-2015 David Braverman.

Find weather

Site navigation


Skip Navigation Links

Place info

Page info

PayPal - The safer, easier way to pay online!

Return home.

Copyright ©2015 Inner Drive Technology. Purveyors of fine, hand-crafted computer software. Page printed 2015-01-29T14:18:50 UTC.